createdAt,value
2023-02-23T00:00:53.429Z,100610.66
2023-02-23T00:03:57.830Z,100636.50
2023-02-23T00:07:00.508Z,100606.75
2023-02-23T00:10:03.280Z,100620.81
2023-02-23T00:13:23.445Z,100618.59
2023-02-23T00:16:26.630Z,100638.81
2023-02-23T00:19:29.371Z,100626.34
2023-02-23T00:22:34.510Z,100615.34
2023-02-23T00:25:39.087Z,100614.50
2023-02-23T00:28:43.858Z,100647.94
2023-02-23T00:31:48.037Z,100631.94
2023-02-23T00:34:52.313Z,100647.03
2023-02-23T00:37:57.526Z,100619.25
2023-02-23T00:41:00.397Z,100648.81
2023-02-23T00:44:05.650Z,100648.81
2023-02-23T00:47:08.495Z,100648.72
2023-02-23T00:50:22.798Z,100652.88
2023-02-23T00:53:27.960Z,100602.88
2023-02-23T00:56:30.935Z,100630.25
2023-02-23T00:59:33.598Z,100654.81
2023-02-23T01:02:36.418Z,100621.59
2023-02-23T01:05:41.998Z,100610.81
2023-02-23T01:08:50.404Z,100643.16
2023-02-23T01:11:53.300Z,100639.84
2023-02-23T01:14:58.900Z,100613.84
2023-02-23T01:18:03.178Z,100658.19
2023-02-23T01:21:14.089Z,100659.84
2023-02-23T01:24:17.704Z,100665.38
2023-02-23T01:27:24.367Z,100635.25
2023-02-23T01:30:27.281Z,100620.28
2023-02-23T01:33:32.179Z,100623.72
2023-02-23T01:36:37.344Z,100654.34
2023-02-23T01:39:39.820Z,100630.38
2023-02-23T01:42:47.176Z,100633.97
2023-02-23T01:45:50.492Z,100650.56
2023-02-23T01:48:56.617Z,100648.41
2023-02-23T01:52:09.341Z,100636.47
2023-02-23T01:55:13.946Z,100630.59
2023-02-23T01:58:20.184Z,100634.78
2023-02-23T02:01:25.184Z,100647.13
2023-02-23T02:04:33.850Z,100619.94
2023-02-23T02:07:38.395Z,100643.72
2023-02-23T02:10:41.382Z,100639.50
2023-02-23T02:13:44.261Z,100635.19
2023-02-23T02:17:05.714Z,100647.81
2023-02-23T02:20:34.468Z,100647.50
2023-02-23T02:24:01.017Z,100642.38
2023-02-23T02:27:23.177Z,100639.66
2023-02-23T02:30:45.855Z,100630.94
2023-02-23T02:34:16.134Z,100608.06
2023-02-23T02:37:33.551Z,100645.28
2023-02-23T02:40:54.691Z,100635.00
2023-02-23T02:44:36.335Z,100636.59
2023-02-23T02:47:49.331Z,100636.91
2023-02-23T02:50:59.194Z,100629.78
2023-02-23T02:54:15.205Z,100641.50
2023-02-23T02:57:20.326Z,100619.41
2023-02-23T03:00:54.609Z,100636.09
2023-02-23T03:04:23.271Z,100608.28
2023-02-23T03:07:54.097Z,100654.34
2023-02-23T03:11:20.706Z,100653.78
2023-02-23T03:15:00.045Z,100617.13
2023-02-23T03:18:51.986Z,100639.06
2023-02-23T03:22:39.032Z,100657.66
2023-02-23T03:26:24.299Z,100663.50
2023-02-23T03:30:17.772Z,100660.59
2023-02-23T03:33:49.077Z,100656.41
2023-02-23T03:37:23.760Z,100638.72
2023-02-23T03:40:53.647Z,100656.91
2023-02-23T03:44:20.599Z,100622.25
2023-02-23T03:47:46.371Z,100629.13
2023-02-23T03:51:16.782Z,100632.00
2023-02-23T03:54:50.735Z,100637.44
2023-02-23T03:58:20.340Z,100620.38
2023-02-23T04:01:45.707Z,100661.72
2023-02-23T04:05:17.604Z,100655.06
2023-02-23T04:08:43.394Z,100630.13
2023-02-23T04:12:23.976Z,100642.59
2023-02-23T04:16:05.685Z,100673.34
2023-02-23T04:19:08.243Z,100663.59
2023-02-23T04:22:10.804Z,100661.63
2023-02-23T04:25:17.376Z,100668.78
2023-02-23T04:28:25.141Z,100645.91
2023-02-23T04:31:34.300Z,100626.09
2023-02-23T04:35:00.768Z,100647.22
2023-02-23T04:38:13.986Z,100669.00
2023-02-23T04:41:16.904Z,100643.66
2023-02-23T04:44:19.842Z,100661.63
2023-02-23T04:47:23.600Z,100680.28
2023-02-23T04:50:27.496Z,100679.78
2023-02-23T04:53:40.546Z,100672.34
2023-02-23T04:56:43.823Z,100651.56
2023-02-23T04:59:47.056Z,100651.75
2023-02-23T05:02:50.858Z,100659.44
2023-02-23T05:05:54.753Z,100654.47
2023-02-23T05:08:57.431Z,100661.72
2023-02-23T05:12:03.938Z,100652.41
2023-02-23T05:15:08.316Z,100623.03
2023-02-23T05:18:11.487Z,100637.06
2023-02-23T05:21:18.246Z,100657.31
2023-02-23T05:24:21.498Z,100663.06
2023-02-23T05:27:24.086Z,100658.44
2023-02-23T05:30:27.178Z,100662.25
2023-02-23T05:33:34.891Z,100689.25
2023-02-23T05:36:40.427Z,100679.53
2023-02-23T05:39:46.668Z,100665.44
2023-02-23T05:42:49.657Z,100684.56
2023-02-23T05:45:52.673Z,100661.44
2023-02-23T05:49:01.085Z,100649.94
2023-02-23T05:52:03.723Z,100688.84
2023-02-23T05:55:06.796Z,100665.84
2023-02-23T05:58:11.846Z,100664.72
2023-02-23T06:01:20.401Z,100673.06
2023-02-23T06:04:23.572Z,100699.81
2023-02-23T06:07:27.257Z,100682.69
2023-02-23T06:10:29.968Z,100690.06
2023-02-23T06:13:34.475Z,100669.16
2023-02-23T06:16:37.167Z,100674.78
2023-02-23T06:19:44.615Z,100703.03
2023-02-23T06:22:51.434Z,100707.81
2023-02-23T06:25:56.799Z,100682.47
2023-02-23T06:28:59.776Z,100705.84
2023-02-23T06:32:11.057Z,100729.69
2023-02-23T06:35:19.371Z,100734.38
2023-02-23T06:38:22.362Z,100741.09
2023-02-23T06:41:28.446Z,100742.47
2023-02-23T06:44:37.608Z,100714.81
2023-02-23T06:47:42.931Z,100702.47
2023-02-23T06:50:59.798Z,100720.13
2023-02-23T06:54:11.240Z,100735.19
2023-02-23T06:57:22.049Z,100750.00
2023-02-23T07:00:34.321Z,100712.31
2023-02-23T07:03:42.965Z,100727.38
2023-02-23T07:07:01.168Z,100737.56
2023-02-23T07:10:10.043Z,100761.34
2023-02-23T07:13:13.427Z,100763.84
2023-02-23T07:16:18.253Z,100758.50
2023-02-23T07:19:21.097Z,100766.16
2023-02-23T07:22:30.832Z,100765.75
2023-02-23T07:25:34.555Z,100723.13
2023-02-23T07:28:45.798Z,100723.25
2023-02-23T07:31:54.818Z,100753.22
2023-02-23T07:35:01.424Z,100742.09
2023-02-23T07:38:07.823Z,100752.34
2023-02-23T07:41:26.946Z,100767.50
2023-02-23T07:44:30.597Z,100767.91
2023-02-23T07:47:34.855Z,100740.41
2023-02-23T07:50:42.918Z,100733.28
2023-02-23T07:53:50.291Z,100770.06
2023-02-23T07:56:54.460Z,100732.66
2023-02-23T08:00:06.139Z,100733.88
2023-02-23T08:03:15.074Z,100726.19
2023-02-23T08:06:21.353Z,100744.22
2023-02-23T08:09:30.339Z,100738.09
2023-02-23T08:12:41.759Z,100755.28
2023-02-23T08:15:46.900Z,100767.78
2023-02-23T08:19:01.353Z,100778.75
2023-02-23T08:22:12.825Z,100776.84
2023-02-23T08:25:30.635Z,100780.28
2023-02-23T08:28:33.386Z,100776.22
2023-02-23T08:31:38.563Z,100770.66
2023-02-23T08:34:47.519Z,100771.06
2023-02-23T08:37:51.629Z,100763.16
2023-02-23T08:41:01.045Z,100746.03
2023-02-23T08:44:03.401Z,100777.34
2023-02-23T08:47:06.167Z,100781.06
2023-02-23T08:50:12.239Z,100769.81
2023-02-23T08:53:19.721Z,100783.25
2023-02-23T08:56:35.383Z,100756.97
2023-02-23T08:59:43.345Z,100750.56
2023-02-23T09:02:52.440Z,100780.56
2023-02-23T09:05:59.747Z,100789.50
2023-02-23T09:09:04.522Z,100785.25
2023-02-23T09:12:13.985Z,100794.16
2023-02-23T09:15:19.712Z,100773.75
2023-02-23T09:18:24.431Z,100746.97
2023-02-23T09:21:32.202Z,100761.53
2023-02-23T09:24:39.271Z,100787.44
2023-02-23T09:27:42.034Z,100779.69
2023-02-23T09:30:46.657Z,100778.38
2023-02-23T09:37:11.518Z,100790.72
2023-02-23T09:40:34.421Z,100753.75
2023-02-23T09:43:50.803Z,100786.75
2023-02-23T09:47:12.931Z,100763.75
2023-02-23T09:50:24.926Z,100801.13
2023-02-23T09:53:49.465Z,100804.97
2023-02-23T09:56:53.774Z,100784.00
2023-02-23T09:59:56.521Z,100793.69
2023-02-23T10:03:33.161Z,100794.34
2023-02-23T10:06:53.667Z,100778.53
2023-02-23T10:10:33.920Z,100797.84
2023-02-23T10:13:45.866Z,100791.56
2023-02-23T10:21:44.468Z,100805.00
2023-02-23T10:25:28.780Z,100802.81
2023-02-23T10:28:42.710Z,100777.88
2023-02-23T10:31:53.541Z,100802.09
2023-02-23T10:39:37.349Z,100771.28
2023-02-23T10:42:55.120Z,100781.91
2023-02-23T10:46:20.504Z,100780.22
2023-02-23T10:49:41.111Z,100744.81
2023-02-23T10:53:32.495Z,100743.31
2023-02-23T10:56:51.116Z,100740.28
2023-02-23T11:00:33.684Z,100763.41
2023-02-23T11:04:05.915Z,100716.88
2023-02-23T11:07:34.472Z,100698.53
2023-02-23T11:10:41.498Z,100709.09
2023-02-23T11:13:47.664Z,100729.38
2023-02-23T11:17:42.533Z,100741.84
2023-02-23T11:21:04.035Z,100734.28
2023-02-23T11:24:35.869Z,100702.69
2023-02-23T11:27:42.891Z,100735.78
2023-02-23T11:30:55.131Z,100730.91
2023-02-23T11:34:17.575Z,100717.88
2023-02-23T11:37:51.195Z,100738.44
2023-02-23T11:41:28.537Z,100699.09
2023-02-23T11:44:42.492Z,100704.88
2023-02-23T11:48:06.107Z,100679.59
2023-02-23T11:56:05.134Z,100698.38
2023-02-23T11:59:48.068Z,100687.28
2023-02-23T12:03:28.654Z,100681.28
2023-02-23T12:06:40.644Z,100682.03
2023-02-23T12:09:48.234Z,100681.38
2023-02-23T12:13:22.392Z,100699.44
2023-02-23T12:19:58.583Z,100706.03
2023-02-23T12:23:10.858Z,100696.69
2023-02-23T12:26:20.391Z,100696.06
2023-02-23T12:29:56.821Z,100687.66
2023-02-23T12:33:05.821Z,100685.38
2023-02-23T12:36:38.921Z,100683.75
2023-02-23T12:39:45.249Z,100677.03
2023-02-23T12:42:57.677Z,100669.50
2023-02-23T12:46:02.613Z,100668.34
2023-02-23T12:49:25.567Z,100663.75
2023-02-23T12:52:34.884Z,100652.97
2023-02-23T12:55:48.107Z,100656.91
2023-02-23T12:59:13.472Z,100654.59
2023-02-23T13:02:25.710Z,100658.38
2023-02-23T13:05:39.673Z,100649.06
2023-02-23T13:09:23.782Z,100643.16
2023-02-23T13:13:12.997Z,100646.41
2023-02-23T13:16:44.387Z,100637.41
2023-02-23T13:19:56.978Z,100637.41
2023-02-23T13:23:13.439Z,100639.88
2023-02-23T13:26:28.759Z,100629.56
2023-02-23T13:29:34.251Z,100621.53
2023-02-23T13:32:37.983Z,100623.94
2023-02-23T13:35:40.453Z,100624.13
2023-02-23T13:38:53.856Z,100622.09
2023-02-23T13:42:20.506Z,100622.66
2023-02-23T13:45:43.817Z,100616.09
2023-02-23T13:49:02.069Z,100618.06
2023-02-23T13:52:38.253Z,100613.94
2023-02-23T13:55:51.998Z,100591.19
2023-02-23T13:59:03.682Z,100602.47
2023-02-23T14:02:38.858Z,100613.00
2023-02-23T14:05:45.309Z,100608.75
2023-02-23T14:08:54.932Z,100602.31
2023-02-23T14:12:09.652Z,100604.81
2023-02-23T14:15:37.829Z,100605.75
2023-02-23T14:19:15.886Z,100606.41
2023-02-23T14:22:22.189Z,100608.06
2023-02-23T14:25:33.589Z,100609.69
2023-02-23T14:28:41.530Z,100612.81
2023-02-23T14:32:04.959Z,100609.09
2023-02-23T14:35:45.143Z,100605.16
2023-02-23T14:38:51.430Z,100601.22
2023-02-23T14:41:59.059Z,100606.41
2023-02-23T14:45:29.572Z,100604.63
2023-02-23T14:48:36.696Z,100601.47
2023-02-23T14:51:48.620Z,100600.16
2023-02-23T14:54:51.983Z,100594.91
2023-02-23T14:57:54.346Z,100605.78
2023-02-23T15:00:56.369Z,100597.22
2023-02-23T15:04:06.882Z,100598.22
2023-02-23T15:07:18.820Z,100593.16
2023-02-23T15:10:31.418Z,100591.72
2023-02-23T15:13:40.132Z,100587.47
2023-02-23T15:16:45.035Z,100586.00
2023-02-23T15:20:00.009Z,100585.66
2023-02-23T15:23:13.014Z,100587.00
2023-02-23T15:26:33.116Z,100590.09
2023-02-23T15:29:35.094Z,100580.91
2023-02-23T15:32:38.688Z,100587.63
2023-02-23T15:35:54.140Z,100575.00
2023-02-23T15:39:01.321Z,100573.22
2023-02-23T15:42:05.711Z,100577.63
2023-02-23T15:45:40.499Z,100573.50
2023-02-23T15:48:49.622Z,100568.94
2023-02-23T15:51:59.432Z,100575.34
2023-02-23T15:55:08.259Z,100574.66
2023-02-23T15:58:26.996Z,100577.28
2023-02-23T16:01:31.781Z,100574.78
2023-02-23T16:04:38.987Z,100577.13
2023-02-23T16:07:43.480Z,100571.69
2023-02-23T16:10:47.540Z,100580.53
2023-02-23T16:13:52.012Z,100583.28
2023-02-23T16:17:09.855Z,100583.16
2023-02-23T16:20:16.515Z,100576.94
2023-02-23T16:23:44.722Z,100578.91
2023-02-23T16:26:55.988Z,100574.31
2023-02-23T16:30:18.713Z,100579.19
2023-02-23T16:33:27.243Z,100585.13
2023-02-23T16:36:41.181Z,100578.56
2023-02-23T16:39:43.959Z,100574.78
2023-02-23T16:42:46.109Z,100578.56
2023-02-23T16:45:50.609Z,100590.16
2023-02-23T16:48:54.143Z,100583.28
2023-02-23T16:51:57.785Z,100577.06
2023-02-23T16:54:59.793Z,100585.25
2023-02-23T16:58:04.553Z,100581.47
2023-02-23T17:01:07.163Z,100582.13
2023-02-23T17:04:20.427Z,100576.28
2023-02-23T17:07:24.082Z,100576.94
2023-02-23T17:10:35.418Z,100580.53
2023-02-23T17:13:37.676Z,100571.69
2023-02-23T17:16:40.634Z,100573.69
2023-02-23T17:19:45.540Z,100564.00
2023-02-23T17:22:49.804Z,100563.53
2023-02-23T17:25:52.330Z,100571.88
2023-02-23T17:28:54.648Z,100575.19
2023-02-23T17:32:00.271Z,100575.00
2023-02-23T17:35:02.396Z,100570.56
2023-02-23T17:38:07.321Z,100578.94
2023-02-23T17:41:16.276Z,100572.22
2023-02-23T17:44:18.473Z,100578.94
2023-02-23T17:47:21.409Z,100587.75
2023-02-23T17:50:27.065Z,100580.00
2023-02-23T17:53:31.325Z,100578.56
2023-02-23T17:56:33.846Z,100584.78
2023-02-23T17:59:36.307Z,100573.03
2023-02-23T18:02:40.546Z,100574.66
2023-02-23T18:05:42.958Z,100567.28
2023-02-23T18:08:46.927Z,100571.56
2023-02-23T18:11:49.132Z,100570.09
2023-02-23T18:14:51.529Z,100564.69
2023-02-23T18:17:54.839Z,100563.25
2023-02-23T18:20:59.760Z,100566.19
2023-02-23T18:24:01.839Z,100560.75
2023-02-23T18:27:04.812Z,100565.84
2023-02-23T18:30:07.876Z,100557.84
2023-02-23T18:33:11.855Z,100555.38
2023-02-23T18:36:17.643Z,100558.31
2023-02-23T18:39:19.860Z,100554.72
2023-02-23T18:42:22.113Z,100555.41
2023-02-23T18:45:25.086Z,100552.28
2023-02-23T18:48:27.242Z,100553.91
2023-02-23T18:51:30.442Z,100550.31
2023-02-23T18:54:32.813Z,100549.66
2023-02-23T18:57:35.167Z,100536.06
2023-02-23T19:00:42.824Z,100545.53
2023-02-23T19:03:47.152Z,100545.84
2023-02-23T19:06:49.590Z,100540.63
2023-02-23T19:09:52.149Z,100540.66
2023-02-23T19:12:54.497Z,100544.88
2023-02-23T19:15:58.937Z,100543.28
2023-02-23T19:19:03.756Z,100544.09
2023-02-23T19:22:06.113Z,100538.56
2023-02-23T19:25:11.840Z,100533.31
2023-02-23T19:28:14.401Z,100541.81
2023-02-23T19:31:21.136Z,100543.28
2023-02-23T19:34:23.419Z,100542.16
2023-02-23T19:37:26.167Z,100541.94
2023-02-23T19:40:28.563Z,100550.94
2023-02-23T19:43:30.874Z,100547.47
2023-02-23T19:46:35.144Z,100545.88
2023-02-23T19:49:38.354Z,100553.22
2023-02-23T19:52:40.760Z,100548.47
2023-02-23T19:55:45.352Z,100549.09
2023-02-23T19:58:49.430Z,100547.66
2023-02-23T20:01:53.161Z,100551.72
2023-02-23T20:04:55.895Z,100554.66
2023-02-23T20:07:57.840Z,100549.09
2023-02-23T20:11:00.528Z,100547.34
2023-02-23T20:14:05.159Z,100547.81
2023-02-23T20:17:09.000Z,100537.34
2023-02-23T20:20:12.412Z,100543.88
2023-02-23T20:23:14.782Z,100544.69
2023-02-23T20:26:20.565Z,100538.94
2023-02-23T20:29:28.238Z,100538.94
2023-02-23T20:32:32.115Z,100535.50
2023-02-23T20:35:34.740Z,100532.22
2023-02-23T20:38:37.175Z,100512.47
2023-02-23T20:41:44.035Z,100515.25
2023-02-23T20:44:45.994Z,100508.38
2023-02-23T20:47:55.616Z,100503.16
2023-02-23T20:50:58.390Z,100514.25
2023-02-23T20:54:00.812Z,100506.25
2023-02-23T20:57:07.955Z,100509.03
2023-02-23T21:00:19.992Z,100501.53
2023-02-23T21:03:22.738Z,100510.03
2023-02-23T21:06:29.932Z,100512.81
2023-02-23T21:09:33.022Z,100515.78
2023-02-23T21:12:35.669Z,100505.31
2023-02-23T21:15:40.635Z,100511.66
2023-02-23T21:18:43.229Z,100508.72
2023-02-23T21:21:58.298Z,100511.16
2023-02-23T21:25:00.907Z,100513.28
2023-02-23T21:28:05.444Z,100506.72
2023-02-23T21:31:10.732Z,100510.84
2023-02-23T21:34:15.599Z,100499.88
2023-02-23T21:37:18.295Z,100507.66
2023-02-23T21:40:21.487Z,100498.53
2023-02-23T21:43:23.986Z,100508.84
2023-02-23T21:46:26.287Z,100506.16
2023-02-23T21:49:28.650Z,100502.28
2023-02-23T21:52:31.572Z,100501.09
2023-02-23T21:55:33.524Z,100488.22
2023-02-23T21:58:38.481Z,100485.91
2023-02-23T22:01:43.550Z,100487.22
2023-02-23T22:04:47.751Z,100490.50
2023-02-23T22:07:54.990Z,100485.25
2023-02-23T22:10:56.778Z,100481.47
2023-02-23T22:14:00.275Z,100474.28
2023-02-23T22:17:05.684Z,100475.91
2023-02-23T22:20:08.460Z,100472.78
2023-02-23T22:23:12.021Z,100469.00
2023-02-23T22:26:17.352Z,100465.28
2023-02-23T22:29:21.304Z,100465.09
2023-02-23T22:32:23.493Z,100451.34
2023-02-23T22:35:25.498Z,100458.53
2023-02-23T22:38:29.469Z,100452.84
2023-02-23T22:41:31.392Z,100452.19
2023-02-23T22:44:34.060Z,100449.09
2023-02-23T22:47:39.282Z,100447.22
2023-02-23T22:50:42.257Z,100441.19
2023-02-23T22:53:44.724Z,100442.47
2023-02-23T22:56:47.893Z,100435.06
2023-02-23T23:00:00.504Z,100444.34
2023-02-23T23:03:04.486Z,100443.03
2023-02-23T23:06:10.368Z,100442.75
2023-02-23T23:09:13.401Z,100438.19
2023-02-23T23:12:18.148Z,100437.47
2023-02-23T23:15:20.353Z,100439.41
2023-02-23T23:18:24.520Z,100432.06
2023-02-23T23:21:28.096Z,100429.47
2023-02-23T23:24:30.596Z,100433.50
2023-02-23T23:27:37.303Z,100427.47
2023-02-23T23:30:41.862Z,100421.13
2023-02-23T23:33:50.305Z,100417.16
2023-02-23T23:36:53.502Z,100414.91
2023-02-23T23:40:05.638Z,100418.63
2023-02-23T23:43:07.906Z,100408.72
2023-02-23T23:46:10.761Z,100403.03
2023-02-23T23:49:19.278Z,100403.84
2023-02-23T23:52:21.423Z,100401.84
2023-02-23T23:55:23.469Z,100400.81
2023-02-23T23:58:26.782Z,100391.16
